sensor_id;sensor_type;location;lat;lon;timestamp;temperature;humidity
34873;DHT22;21084;51.098;14.506;2024-01-16T00:01:27;-0.50;99.90
34873;DHT22;21084;51.098;14.506;2024-01-16T00:03:56;-0.50;99.90
34873;DHT22;21084;51.098;14.506;2024-01-16T00:06:25;-0.50;99.90
34873;DHT22;21084;51.098;14.506;2024-01-16T00:08:54;-0.50;99.90
34873;DHT22;21084;51.098;14.506;2024-01-16T00:11:23;-0.50;99.90
34873;DHT22;21084;51.098;14.506;2024-01-16T00:13:52;-0.50;99.90
34873;DHT22;21084;51.098;14.506;2024-01-16T00:16:21;-0.50;99.90
34873;DHT22;21084;51.098;14.506;2024-01-16T00:18:49;-0.50;99.90
34873;DHT22;21084;51.098;14.506;2024-01-16T00:21:18;-0.50;99.90
34873;DHT22;21084;51.098;14.506;2024-01-16T00:23:48;-0.50;99.90
34873;DHT22;21084;51.098;14.506;2024-01-16T00:26:20;-0.60;99.90
34873;DHT22;21084;51.098;14.506;2024-01-16T00:28:49;-0.50;99.90
34873;DHT22;21084;51.098;14.506;2024-01-16T00:31:19;-0.50;99.90
34873;DHT22;21084;51.098;14.506;2024-01-16T00:33:47;-0.40;99.90
34873;DHT22;21084;51.098;14.506;2024-01-16T00:36:16;-0.40;99.90
34873;DHT22;21084;51.098;14.506;2024-01-16T00:38:45;-0.40;99.90
34873;DHT22;21084;51.098;14.506;2024-01-16T00:41:16;-0.40;99.90
34873;DHT22;21084;51.098;14.506;2024-01-16T00:43:44;-0.40;99.90
34873;DHT22;21084;51.098;14.506;2024-01-16T00:46:13;-0.40;99.90
34873;DHT22;21084;51.098;14.506;2024-01-16T00:48:41;-0.40;99.90
34873;DHT22;21084;51.098;14.506;2024-01-16T00:51:10;-0.50;99.90
34873;DHT22;21084;51.098;14.506;2024-01-16T00:53:42;-0.50;99.90
34873;DHT22;21084;51.098;14.506;2024-01-16T00:56:11;-0.50;99.90
34873;DHT22;21084;51.098;14.506;2024-01-16T00:58:41;-0.50;99.90
34873;DHT22;21084;51.098;14.506;2024-01-16T01:01:10;-0.60;99.90
34873;DHT22;21084;51.098;14.506;2024-01-16T01:03:38;-0.60;99.90
34873;DHT22;21084;51.098;14.506;2024-01-16T01:06:07;-0.60;99.90
34873;DHT22;21084;51.098;14.506;2024-01-16T01:08:36;-0.70;99.90
34873;DHT22;21084;51.098;14.506;2024-01-16T01:11:04;-0.70;99.90
34873;DHT22;21084;51.098;14.506;2024-01-16T01:13:33;-0.70;99.90
34873;DHT22;21084;51.098;14.506;2024-01-16T01:16:03;-0.60;99.90
34873;DHT22;21084;51.098;14.506;2024-01-16T01:18:32;-0.60;99.90
34873;DHT22;21084;51.098;14.506;2024-01-16T01:21:00;-0.60;99.90
34873;DHT22;21084;51.098;14.506;2024-01-16T01:23:29;-0.60;99.90
34873;DHT22;21084;51.098;14.506;2024-01-16T01:25:58;-0.60;99.90
34873;DHT22;21084;51.098;14.506;2024-01-16T01:28:26;-0.70;99.90
34873;DHT22;21084;51.098;14.506;2024-01-16T01:30:55;-0.70;99.90
34873;DHT22;21084;51.098;14.506;2024-01-16T01:33:25;-0.70;99.90
34873;DHT22;21084;51.098;14.506;2024-01-16T01:35:53;-0.60;99.90
34873;DHT22;21084;51.098;14.506;2024-01-16T01:38:22;-0.70;99.90
34873;DHT22;21084;51.098;14.506;2024-01-16T01:40:51;-0.70;99.90
34873;DHT22;21084;51.098;14.506;2024-01-16T01:43:20;-0.70;99.90
34873;DHT22;21084;51.098;14.506;2024-01-16T01:46:08;-0.70;99.90
34873;DHT22;21084;51.098;14.506;2024-01-16T01:48:40;-0.60;99.90
34873;DHT22;21084;51.098;14.506;2024-01-16T01:51:10;-0.60;99.90
34873;DHT22;21084;51.098;14.506;2024-01-16T01:53:41;-0.60;99.90
34873;DHT22;21084;51.098;14.506;2024-01-16T01:56:13;-0.60;99.90
34873;DHT22;21084;51.098;14.506;2024-01-16T01:58:44;-0.60;99.90
34873;DHT22;21084;51.098;14.506;2024-01-16T02:01:16;-0.60;99.90
34873;DHT22;21084;51.098;14.506;2024-01-16T02:03:47;-0.60;99.90
34873;DHT22;21084;51.098;14.506;2024-01-16T02:06:17;-0.60;99.90
34873;DHT22;21084;51.098;14.506;2024-01-16T02:08:46;-0.60;99.90
34873;DHT22;21084;51.098;14.506;2024-01-16T02:11:15;-0.70;99.90
34873;DHT22;21084;51.098;14.506;2024-01-16T02:13:43;-0.70;99.90
34873;DHT22;21084;51.098;14.506;2024-01-16T02:16:20;-0.60;99.90
34873;DHT22;21084;51.098;14.506;2024-01-16T02:18:51;-0.70;99.90
34873;DHT22;21084;51.098;14.506;2024-01-16T02:21:22;-0.70;99.90
34873;DHT22;21084;51.098;14.506;2024-01-16T02:23:52;-0.70;99.90
34873;DHT22;21084;51.098;14.506;2024-01-16T02:26:21;-0.70;99.90
34873;DHT22;21084;51.098;14.506;2024-01-16T02:28:50;-0.60;99.90
34873;DHT22;21084;51.098;14.506;2024-01-16T02:31:19;-0.60;99.90
34873;DHT22;21084;51.098;14.506;2024-01-16T02:33:48;-0.60;99.90
34873;DHT22;21084;51.098;14.506;2024-01-16T02:36:16;-0.60;99.90
34873;DHT22;21084;51.098;14.506;2024-01-16T02:38:45;-0.50;99.90
34873;DHT22;21084;51.098;14.506;2024-01-16T02:41:15;-0.50;99.90
34873;DHT22;21084;51.098;14.506;2024-01-16T02:43:44;-0.50;99.90
34873;DHT22;21084;51.098;14.506;2024-01-16T02:46:13;-0.50;99.90
34873;DHT22;21084;51.098;14.506;2024-01-16T02:48:42;-0.60;99.90
34873;DHT22;21084;51.098;14.506;2024-01-16T02:51:11;-0.80;99.90
34873;DHT22;21084;51.098;14.506;2024-01-16T02:53:40;-0.90;99.90
34873;DHT22;21084;51.098;14.506;2024-01-16T02:56:08;-1.00;99.90
34873;DHT22;21084;51.098;14.506;2024-01-16T02:58:39;-1.00;99.90
34873;DHT22;21084;51.098;14.506;2024-01-16T03:01:07;-1.00;99.90
34873;DHT22;21084;51.098;14.506;2024-01-16T03:03:36;-1.00;99.90
34873;DHT22;21084;51.098;14.506;2024-01-16T03:06:05;-1.00;99.90
34873;DHT22;21084;51.098;14.506;2024-01-16T03:08:33;-1.00;99.90
34873;DHT22;21084;51.098;14.506;2024-01-16T03:11:02;-1.10;99.90
34873;DHT22;21084;51.098;14.506;2024-01-16T03:13:31;-1.10;99.90
34873;DHT22;21084;51.098;14.506;2024-01-16T03:16:01;-1.10;99.90
34873;DHT22;21084;51.098;14.506;2024-01-16T03:18:34;-1.10;99.90
34873;DHT22;21084;51.098;14.506;2024-01-16T03:21:03;-1.10;99.90
34873;DHT22;21084;51.098;14.506;2024-01-16T03:23:32;-1.10;99.90
34873;DHT22;21084;51.098;14.506;2024-01-16T03:26:00;-1.00;99.90
34873;DHT22;21084;51.098;14.506;2024-01-16T03:28:31;-1.00;99.90
34873;DHT22;21084;51.098;14.506;2024-01-16T03:31:00;-1.00;99.90
34873;DHT22;21084;51.098;14.506;2024-01-16T03:33:30;-0.90;99.90
34873;DHT22;21084;51.098;14.506;2024-01-16T03:35:58;-0.90;99.90
34873;DHT22;21084;51.098;14.506;2024-01-16T03:38:27;-0.90;99.90
34873;DHT22;21084;51.098;14.506;2024-01-16T03:40:56;-0.80;99.90
34873;DHT22;21084;51.098;14.506;2024-01-16T03:43:24;-0.80;99.90
34873;DHT22;21084;51.098;14.506;2024-01-16T03:45:53;-0.80;99.90
34873;DHT22;21084;51.098;14.506;2024-01-16T03:48:23;-0.80;99.90
34873;DHT22;21084;51.098;14.506;2024-01-16T03:50:51;-0.80;99.90
34873;DHT22;21084;51.098;14.506;2024-01-16T03:53:21;-0.80;99.90
34873;DHT22;21084;51.098;14.506;2024-01-16T03:55:51;-0.80;99.90
34873;DHT22;21084;51.098;14.506;2024-01-16T03:58:19;-0.70;99.90
34873;DHT22;21084;51.098;14.506;2024-01-16T04:00:48;-0.70;99.90
34873;DHT22;21084;51.098;14.506;2024-01-16T04:03:18;-0.70;99.90
34873;DHT22;21084;51.098;14.506;2024-01-16T04:05:48;-0.70;99.90
34873;DHT22;21084;51.098;14.506;2024-01-16T04:08:16;-0.70;99.90
34873;DHT22;21084;51.098;14.506;2024-01-16T04:10:45;-0.70;99.90
34873;DHT22;21084;51.098;14.506;2024-01-16T04:13:14;-0.60;99.90
34873;DHT22;21084;51.098;14.506;2024-01-16T04:15:43;-0.60;99.90
34873;DHT22;21084;51.098;14.506;2024-01-16T04:18:12;-0.60;99.90
34873;DHT22;21084;51.098;14.506;2024-01-16T04:21:06;-0.60;99.90
34873;DHT22;21084;51.098;14.506;2024-01-16T04:23:35;-0.60;99.90
34873;DHT22;21084;51.098;14.506;2024-01-16T04:26:04;-0.60;99.90
34873;DHT22;21084;51.098;14.506;2024-01-16T04:28:32;-0.60;99.90
34873;DHT22;21084;51.098;14.506;2024-01-16T04:31:01;-0.60;99.90
34873;DHT22;21084;51.098;14.506;2024-01-16T04:33:29;-0.60;99.90
34873;DHT22;21084;51.098;14.506;2024-01-16T04:35:58;-0.60;99.90
34873;DHT22;21084;51.098;14.506;2024-01-16T04:38:28;-0.70;99.90
34873;DHT22;21084;51.098;14.506;2024-01-16T04:40:57;-0.70;99.90
34873;DHT22;21084;51.098;14.506;2024-01-16T04:43:25;-0.70;99.90
34873;DHT22;21084;51.098;14.506;2024-01-16T04:45:53;-0.70;99.90
34873;DHT22;21084;51.098;14.506;2024-01-16T04:48:22;-0.70;99.90
34873;DHT22;21084;51.098;14.506;2024-01-16T04:50:51;-0.70;99.90
34873;DHT22;21084;51.098;14.506;2024-01-16T04:53:19;-0.70;99.90
34873;DHT22;21084;51.098;14.506;2024-01-16T04:55:49;-0.70;99.90
34873;DHT22;21084;51.098;14.506;2024-01-16T04:58:18;-0.70;99.90
34873;DHT22;21084;51.098;14.506;2024-01-16T05:00:47;-0.80;99.90
34873;DHT22;21084;51.098;14.506;2024-01-16T05:03:15;-0.70;99.90
34873;DHT22;21084;51.098;14.506;2024-01-16T05:05:44;-0.70;99.90
34873;DHT22;21084;51.098;14.506;2024-01-16T05:08:12;-0.70;99.90
34873;DHT22;21084;51.098;14.506;2024-01-16T05:10:41;-0.70;99.90
34873;DHT22;21084;51.098;14.506;2024-01-16T05:13:13;-0.70;99.90
34873;DHT22;21084;51.098;14.506;2024-01-16T05:15:41;-0.70;99.90
34873;DHT22;21084;51.098;14.506;2024-01-16T05:18:10;-0.70;99.90
34873;DHT22;21084;51.098;14.506;2024-01-16T05:20:39;-0.60;99.90
34873;DHT22;21084;51.098;14.506;2024-01-16T05:23:08;-0.60;99.90
34873;DHT22;21084;51.098;14.506;2024-01-16T05:25:36;-0.70;99.90
34873;DHT22;21084;51.098;14.506;2024-01-16T05:28:05;-0.70;99.90
34873;DHT22;21084;51.098;14.506;2024-01-16T05:30:35;-0.70;99.90
34873;DHT22;21084;51.098;14.506;2024-01-16T05:33:04;-0.60;99.90
34873;DHT22;21084;51.098;14.506;2024-01-16T05:35:33;-0.60;99.90
34873;DHT22;21084;51.098;14.506;2024-01-16T05:38:02;-0.70;99.90
34873;DHT22;21084;51.098;14.506;2024-01-16T05:40:31;-0.70;99.90
34873;DHT22;21084;51.098;14.506;2024-01-16T05:43:00;-0.70;99.90
34873;DHT22;21084;51.098;14.506;2024-01-16T05:45:29;-0.70;99.90
34873;DHT22;21084;51.098;14.506;2024-01-16T05:47:58;-0.70;99.90
34873;DHT22;21084;51.098;14.506;2024-01-16T05:50:27;-0.70;99.90
34873;DHT22;21084;51.098;14.506;2024-01-16T05:52:56;-0.80;99.90
34873;DHT22;21084;51.098;14.506;2024-01-16T05:55:24;-1.00;99.90
34873;DHT22;21084;51.098;14.506;2024-01-16T05:57:53;-1.00;99.90
34873;DHT22;21084;51.098;14.506;2024-01-16T06:00:21;-1.10;99.90
34873;DHT22;21084;51.098;14.506;2024-01-16T06:02:50;-1.10;99.90
34873;DHT22;21084;51.098;14.506;2024-01-16T06:05:20;-1.10;99.90
34873;DHT22;21084;51.098;14.506;2024-01-16T06:07:49;-1.20;99.90
34873;DHT22;21084;51.098;14.506;2024-01-16T06:10:18;-1.20;99.90
34873;DHT22;21084;51.098;14.506;2024-01-16T06:12:46;-1.10;99.90
34873;DHT22;21084;51.098;14.506;2024-01-16T06:15:15;-1.10;99.90
34873;DHT22;21084;51.098;14.506;2024-01-16T06:17:44;-1.10;99.90
34873;DHT22;21084;51.098;14.506;2024-01-16T06:20:13;-1.20;99.90
34873;DHT22;21084;51.098;14.506;2024-01-16T06:22:43;-1.30;99.90
34873;DHT22;21084;51.098;14.506;2024-01-16T06:25:11;-1.30;99.90
34873;DHT22;21084;51.098;14.506;2024-01-16T06:27:40;-1.30;99.90
34873;DHT22;21084;51.098;14.506;2024-01-16T06:30:10;-1.30;99.90
34873;DHT22;21084;51.098;14.506;2024-01-16T06:32:39;-1.30;99.90
34873;DHT22;21084;51.098;14.506;2024-01-16T06:35:08;-1.20;99.90
34873;DHT22;21084;51.098;14.506;2024-01-16T06:37:36;-1.20;99.90
34873;DHT22;21084;51.098;14.506;2024-01-16T06:40:09;-1.10;99.90
34873;DHT22;21084;51.098;14.506;2024-01-16T06:42:38;-1.00;99.90
34873;DHT22;21084;51.098;14.506;2024-01-16T06:45:07;-1.00;99.90
34873;DHT22;21084;51.098;14.506;2024-01-16T06:47:36;-0.90;99.90
34873;DHT22;21084;51.098;14.506;2024-01-16T06:50:06;-0.90;99.90
34873;DHT22;21084;51.098;14.506;2024-01-16T06:52:35;-0.80;99.90
34873;DHT22;21084;51.098;14.506;2024-01-16T06:55:04;-0.80;99.90
34873;DHT22;21084;51.098;14.506;2024-01-16T06:57:34;-0.80;99.90
34873;DHT22;21084;51.098;14.506;2024-01-16T07:00:04;-0.90;99.90
34873;DHT22;21084;51.098;14.506;2024-01-16T07:02:34;-1.00;99.90
34873;DHT22;21084;51.098;14.506;2024-01-16T07:05:03;-1.10;99.90
34873;DHT22;21084;51.098;14.506;2024-01-16T07:07:32;-1.10;99.90
34873;DHT22;21084;51.098;14.506;2024-01-16T07:10:01;-1.10;99.90
34873;DHT22;21084;51.098;14.506;2024-01-16T07:12:29;-1.20;99.90
34873;DHT22;21084;51.098;14.506;2024-01-16T07:14:59;-1.10;99.90
34873;DHT22;21084;51.098;14.506;2024-01-16T07:17:28;-1.10;99.90
34873;DHT22;21084;51.098;14.506;2024-01-16T07:19:57;-1.10;99.90
34873;DHT22;21084;51.098;14.506;2024-01-16T07:22:26;-1.10;99.90
34873;DHT22;21084;51.098;14.506;2024-01-16T07:24:55;-1.10;99.90
34873;DHT22;21084;51.098;14.506;2024-01-16T07:27:23;-1.10;99.90
34873;DHT22;21084;51.098;14.506;2024-01-16T07:29:52;-1.10;99.90
34873;DHT22;21084;51.098;14.506;2024-01-16T07:32:22;-1.10;99.90
34873;DHT22;21084;51.098;14.506;2024-01-16T07:34:50;-1.20;99.90
34873;DHT22;21084;51.098;14.506;2024-01-16T07:37:19;-1.10;99.90
34873;DHT22;21084;51.098;14.506;2024-01-16T07:39:48;-1.10;99.90
34873;DHT22;21084;51.098;14.506;2024-01-16T07:42:17;-1.00;99.90
34873;DHT22;21084;51.098;14.506;2024-01-16T07:44:45;-1.00;99.90
34873;DHT22;21084;51.098;14.506;2024-01-16T07:47:14;-1.00;99.90
34873;DHT22;21084;51.098;14.506;2024-01-16T07:49:44;-0.90;99.90
34873;DHT22;21084;51.098;14.506;2024-01-16T07:52:12;-0.90;99.90
34873;DHT22;21084;51.098;14.506;2024-01-16T07:54:41;-0.90;99.90
34873;DHT22;21084;51.098;14.506;2024-01-16T07:57:09;-0.80;99.90
34873;DHT22;21084;51.098;14.506;2024-01-16T07:59:39;-0.80;99.90
34873;DHT22;21084;51.098;14.506;2024-01-16T08:02:08;-0.70;99.90
34873;DHT22;21084;51.098;14.506;2024-01-16T08:04:37;-0.80;99.90
34873;DHT22;21084;51.098;14.506;2024-01-16T08:07:07;-0.80;99.90
34873;DHT22;21084;51.098;14.506;2024-01-16T08:09:35;-0.80;99.90
34873;DHT22;21084;51.098;14.506;2024-01-16T08:12:05;-0.70;99.90
34873;DHT22;21084;51.098;14.506;2024-01-16T08:14:34;-0.70;99.90
34873;DHT22;21084;51.098;14.506;2024-01-16T08:17:02;-0.70;99.90
34873;DHT22;21084;51.098;14.506;2024-01-16T08:19:31;-0.70;99.90
34873;DHT22;21084;51.098;14.506;2024-01-16T08:22:00;-0.70;99.90
34873;DHT22;21084;51.098;14.506;2024-01-16T08:24:33;-0.60;99.90
34873;DHT22;21084;51.098;14.506;2024-01-16T08:27:02;-0.60;99.90
34873;DHT22;21084;51.098;14.506;2024-01-16T08:29:30;-0.60;99.90
34873;DHT22;21084;51.098;14.506;2024-01-16T08:31:59;-0.60;99.90
34873;DHT22;21084;51.098;14.506;2024-01-16T08:34:27;-0.60;99.90
34873;DHT22;21084;51.098;14.506;2024-01-16T08:36:56;-0.50;99.90
34873;DHT22;21084;51.098;14.506;2024-01-16T08:39:24;-0.50;99.90
34873;DHT22;21084;51.098;14.506;2024-01-16T08:41:56;-0.60;99.90
34873;DHT22;21084;51.098;14.506;2024-01-16T08:44:25;-0.50;99.90
34873;DHT22;21084;51.098;14.506;2024-01-16T08:46:53;-0.50;99.90
34873;DHT22;21084;51.098;14.506;2024-01-16T08:49:22;-0.50;99.90
34873;DHT22;21084;51.098;14.506;2024-01-16T08:51:50;-0.60;99.90
34873;DHT22;21084;51.098;14.506;2024-01-16T08:54:19;-0.50;99.90
34873;DHT22;21084;51.098;14.506;2024-01-16T08:56:50;-0.60;99.90
34873;DHT22;21084;51.098;14.506;2024-01-16T08:59:20;-0.60;99.90
34873;DHT22;21084;51.098;14.506;2024-01-16T09:01:48;-0.50;99.90
34873;DHT22;21084;51.098;14.506;2024-01-16T09:04:17;-0.50;99.90
34873;DHT22;21084;51.098;14.506;2024-01-16T09:06:45;-0.50;99.90
34873;DHT22;21084;51.098;14.506;2024-01-16T09:09:14;-0.50;99.90
34873;DHT22;21084;51.098;14.506;2024-01-16T09:11:43;-0.40;99.90
34873;DHT22;21084;51.098;14.506;2024-01-16T09:14:12;-0.50;99.90
34873;DHT22;21084;51.098;14.506;2024-01-16T09:16:42;-0.40;99.90
34873;DHT22;21084;51.098;14.506;2024-01-16T09:19:10;-0.40;99.90
34873;DHT22;21084;51.098;14.506;2024-01-16T09:21:39;-0.40;99.90
34873;DHT22;21084;51.098;14.506;2024-01-16T09:24:08;-0.40;99.90
34873;DHT22;21084;51.098;14.506;2024-01-16T09:26:36;-0.60;99.90
34873;DHT22;21084;51.098;14.506;2024-01-16T09:29:05;-0.60;99.90
34873;DHT22;21084;51.098;14.506;2024-01-16T09:31:33;-0.50;99.90
34873;DHT22;21084;51.098;14.506;2024-01-16T09:34:04;-0.50;99.90
34873;DHT22;21084;51.098;14.506;2024-01-16T09:36:36;-0.40;99.90
34873;DHT22;21084;51.098;14.506;2024-01-16T09:39:06;-0.30;99.90
34873;DHT22;21084;51.098;14.506;2024-01-16T09:41:35;-0.30;99.90
34873;DHT22;21084;51.098;14.506;2024-01-16T09:44:04;-0.30;99.90
34873;DHT22;21084;51.098;14.506;2024-01-16T09:46:37;-0.40;99.90
34873;DHT22;21084;51.098;14.506;2024-01-16T09:49:08;-0.30;99.90
34873;DHT22;21084;51.098;14.506;2024-01-16T09:51:37;-0.40;99.90
34873;DHT22;21084;51.098;14.506;2024-01-16T09:54:06;-0.40;99.90
34873;DHT22;21084;51.098;14.506;2024-01-16T09:56:41;-0.40;99.90
34873;DHT22;21084;51.098;14.506;2024-01-16T09:59:10;-0.30;99.90
34873;DHT22;21084;51.098;14.506;2024-01-16T10:01:41;-0.30;99.90
34873;DHT22;21084;51.098;14.506;2024-01-16T10:04:12;-0.40;99.90
34873;DHT22;21084;51.098;14.506;2024-01-16T10:06:41;-0.40;99.90
34873;DHT22;21084;51.098;14.506;2024-01-16T10:09:11;-0.40;99.90
34873;DHT22;21084;51.098;14.506;2024-01-16T10:11:40;-0.30;99.90
34873;DHT22;21084;51.098;14.506;2024-01-16T10:14:10;-0.30;99.90
34873;DHT22;21084;51.098;14.506;2024-01-16T10:16:58;-0.30;99.90
34873;DHT22;21084;51.098;14.506;2024-01-16T10:19:32;-0.30;99.90
34873;DHT22;21084;51.098;14.506;2024-01-16T10:22:19;-0.20;99.90
34873;DHT22;21084;51.098;14.506;2024-01-16T10:25:04;-0.10;99.90
34873;DHT22;21084;51.098;14.506;2024-01-16T10:27:33;-0.10;99.90
34873;DHT22;21084;51.098;14.506;2024-01-16T10:30:03;0.00;99.90
34873;DHT22;21084;51.098;14.506;2024-01-16T10:32:33;0.00;99.90
34873;DHT22;21084;51.098;14.506;2024-01-16T10:35:08;0.10;99.90
34873;DHT22;21084;51.098;14.506;2024-01-16T10:37:42;0.00;99.90
34873;DHT22;21084;51.098;14.506;2024-01-16T10:40:15;-0.10;99.90
34873;DHT22;21084;51.098;14.506;2024-01-16T10:42:57;-0.10;99.90
34873;DHT22;21084;51.098;14.506;2024-01-16T10:45:25;0.00;99.90
34873;DHT22;21084;51.098;14.506;2024-01-16T10:48:01;-0.10;99.90
34873;DHT22;21084;51.098;14.506;2024-01-16T10:50:34;-0.10;99.90
34873;DHT22;21084;51.098;14.506;2024-01-16T10:53:04;-0.10;99.90
34873;DHT22;21084;51.098;14.506;2024-01-16T10:55:50;-0.10;99.90
34873;DHT22;21084;51.098;14.506;2024-01-16T10:58:21;-0.10;99.90
34873;DHT22;21084;51.098;14.506;2024-01-16T11:00:52;-0.10;99.90
34873;DHT22;21084;51.098;14.506;2024-01-16T11:03:27;0.00;99.90
34873;DHT22;21084;51.098;14.506;2024-01-16T11:05:59;0.00;99.90
34873;DHT22;21084;51.098;14.506;2024-01-16T11:08:30;0.00;99.90
34873;DHT22;21084;51.098;14.506;2024-01-16T11:11:00;0.00;99.90
34873;DHT22;21084;51.098;14.506;2024-01-16T11:13:31;0.10;99.90
34873;DHT22;21084;51.098;14.506;2024-01-16T11:16:02;0.10;99.90
34873;DHT22;21084;51.098;14.506;2024-01-16T11:18:32;0.00;99.90
34873;DHT22;21084;51.098;14.506;2024-01-16T11:21:07;0.10;99.90
34873;DHT22;21084;51.098;14.506;2024-01-16T11:23:40;0.20;99.90
34873;DHT22;21084;51.098;14.506;2024-01-16T11:26:25;0.20;99.90
34873;DHT22;21084;51.098;14.506;2024-01-16T11:28:54;0.20;99.90
34873;DHT22;21084;51.098;14.506;2024-01-16T11:31:28;0.20;99.90
34873;DHT22;21084;51.098;14.506;2024-01-16T11:33:57;0.20;99.90
34873;DHT22;21084;51.098;14.506;2024-01-16T11:36:50;0.10;99.90
34873;DHT22;21084;51.098;14.506;2024-01-16T11:39:23;0.10;99.90
34873;DHT22;21084;51.098;14.506;2024-01-16T11:41:53;0.20;99.90
34873;DHT22;21084;51.098;14.506;2024-01-16T11:44:42;0.30;99.90
34873;DHT22;21084;51.098;14.506;2024-01-16T11:47:18;0.40;99.90
34873;DHT22;21084;51.098;14.506;2024-01-16T11:49:48;0.50;99.90
34873;DHT22;21084;51.098;14.506;2024-01-16T11:52:39;0.60;99.90
34873;DHT22;21084;51.098;14.506;2024-01-16T11:55:26;0.60;99.90
34873;DHT22;21084;51.098;14.506;2024-01-16T11:58:13;0.60;99.90
34873;DHT22;21084;51.098;14.506;2024-01-16T12:00:50;0.50;99.90
34873;DHT22;21084;51.098;14.506;2024-01-16T12:03:21;0.40;99.90
34873;DHT22;21084;51.098;14.506;2024-01-16T12:06:02;0.50;99.90
34873;DHT22;21084;51.098;14.506;2024-01-16T12:08:35;0.60;99.90
34873;DHT22;21084;51.098;14.506;2024-01-16T12:11:05;0.50;99.90
34873;DHT22;21084;51.098;14.506;2024-01-16T12:13:33;0.60;99.90
34873;DHT22;21084;51.098;14.506;2024-01-16T12:16:03;0.60;99.90
34873;DHT22;21084;51.098;14.506;2024-01-16T12:18:32;0.50;99.90
34873;DHT22;21084;51.098;14.506;2024-01-16T12:21:11;0.50;99.90
34873;DHT22;21084;51.098;14.506;2024-01-16T12:23:43;0.50;99.90
34873;DHT22;21084;51.098;14.506;2024-01-16T12:26:26;0.40;99.90
34873;DHT22;21084;51.098;14.506;2024-01-16T12:28:55;0.40;99.90
34873;DHT22;21084;51.098;14.506;2024-01-16T12:31:27;0.40;99.90
34873;DHT22;21084;51.098;14.506;2024-01-16T12:34:05;0.40;99.90
34873;DHT22;21084;51.098;14.506;2024-01-16T12:36:36;0.30;99.90
34873;DHT22;21084;51.098;14.506;2024-01-16T12:39:06;0.40;99.90
34873;DHT22;21084;51.098;14.506;2024-01-16T12:41:41;0.50;99.90
34873;DHT22;21084;51.098;14.506;2024-01-16T12:44:12;0.40;99.90
34873;DHT22;21084;51.098;14.506;2024-01-16T12:46:45;0.40;99.90
34873;DHT22;21084;51.098;14.506;2024-01-16T12:49:22;0.50;99.90
34873;DHT22;21084;51.098;14.506;2024-01-16T12:51:51;0.40;99.90
34873;DHT22;21084;51.098;14.506;2024-01-16T12:54:21;0.50;99.90
34873;DHT22;21084;51.098;14.506;2024-01-16T12:56:58;0.40;99.90
34873;DHT22;21084;51.098;14.506;2024-01-16T12:59:27;0.50;99.90
34873;DHT22;21084;51.098;14.506;2024-01-16T13:01:58;0.40;99.90
34873;DHT22;21084;51.098;14.506;2024-01-16T13:04:27;0.40;99.90
34873;DHT22;21084;51.098;14.506;2024-01-16T13:07:01;0.50;99.90
34873;DHT22;21084;51.098;14.506;2024-01-16T13:09:32;0.50;99.90
34873;DHT22;21084;51.098;14.506;2024-01-16T13:12:01;0.50;99.90
34873;DHT22;21084;51.098;14.506;2024-01-16T13:14:29;0.50;99.90
34873;DHT22;21084;51.098;14.506;2024-01-16T13:16:58;0.60;99.90
34873;DHT22;21084;51.098;14.506;2024-01-16T13:19:28;0.50;99.90
34873;DHT22;21084;51.098;14.506;2024-01-16T13:22:00;0.60;99.90
34873;DHT22;21084;51.098;14.506;2024-01-16T13:24:29;0.50;99.90
34873;DHT22;21084;51.098;14.506;2024-01-16T13:26:59;0.60;99.90
34873;DHT22;21084;51.098;14.506;2024-01-16T13:29:28;0.80;99.90
34873;DHT22;21084;51.098;14.506;2024-01-16T13:32:02;1.10;99.90
34873;DHT22;21084;51.098;14.506;2024-01-16T13:34:31;1.50;99.90
34873;DHT22;21084;51.098;14.506;2024-01-16T13:37:01;1.40;99.90
34873;DHT22;21084;51.098;14.506;2024-01-16T13:39:34;1.40;99.90
34873;DHT22;21084;51.098;14.506;2024-01-16T13:42:07;1.50;99.90
34873;DHT22;21084;51.098;14.506;2024-01-16T13:44:35;1.50;99.90
34873;DHT22;21084;51.098;14.506;2024-01-16T13:47:05;1.60;99.90
34873;DHT22;21084;51.098;14.506;2024-01-16T13:49:40;2.00;99.90
34873;DHT22;21084;51.098;14.506;2024-01-16T13:52:09;1.60;99.90
34873;DHT22;21084;51.098;14.506;2024-01-16T13:54:38;1.40;99.90
34873;DHT22;21084;51.098;14.506;2024-01-16T13:57:08;1.30;99.90
34873;DHT22;21084;51.098;14.506;2024-01-16T13:59:40;1.10;99.90
34873;DHT22;21084;51.098;14.506;2024-01-16T14:02:09;1.00;99.90
34873;DHT22;21084;51.098;14.506;2024-01-16T14:04:37;0.90;99.90
34873;DHT22;21084;51.098;14.506;2024-01-16T14:07:06;0.90;99.90
34873;DHT22;21084;51.098;14.506;2024-01-16T14:09:41;1.10;99.90
34873;DHT22;21084;51.098;14.506;2024-01-16T14:12:13;1.10;99.90
34873;DHT22;21084;51.098;14.506;2024-01-16T14:14:42;1.00;99.90
34873;DHT22;21084;51.098;14.506;2024-01-16T14:17:11;1.00;99.90
34873;DHT22;21084;51.098;14.506;2024-01-16T14:19:39;0.90;99.90
34873;DHT22;21084;51.098;14.506;2024-01-16T14:22:08;0.70;99.90
34873;DHT22;21084;51.098;14.506;2024-01-16T14:24:37;0.80;99.90
34873;DHT22;21084;51.098;14.506;2024-01-16T14:27:06;0.80;99.90
34873;DHT22;21084;51.098;14.506;2024-01-16T14:29:38;0.80;99.90
34873;DHT22;21084;51.098;14.506;2024-01-16T14:32:08;0.80;99.90
34873;DHT22;21084;51.098;14.506;2024-01-16T14:34:37;0.70;99.90
34873;DHT22;21084;51.098;14.506;2024-01-16T14:37:06;0.60;99.90
34873;DHT22;21084;51.098;14.506;2024-01-16T14:39:34;0.50;99.90
34873;DHT22;21084;51.098;14.506;2024-01-16T14:42:04;0.40;99.90
34873;DHT22;21084;51.098;14.506;2024-01-16T14:44:33;0.30;99.90
34873;DHT22;21084;51.098;14.506;2024-01-16T14:47:04;0.30;99.90
34873;DHT22;21084;51.098;14.506;2024-01-16T14:49:32;0.30;99.90
34873;DHT22;21084;51.098;14.506;2024-01-16T14:52:02;0.30;99.90
34873;DHT22;21084;51.098;14.506;2024-01-16T14:54:30;0.20;99.90
34873;DHT22;21084;51.098;14.506;2024-01-16T14:56:59;0.20;99.90
34873;DHT22;21084;51.098;14.506;2024-01-16T14:59:28;0.10;99.90
34873;DHT22;21084;51.098;14.506;2024-01-16T15:01:56;0.10;99.90
34873;DHT22;21084;51.098;14.506;2024-01-16T15:04:26;0.10;99.90
34873;DHT22;21084;51.098;14.506;2024-01-16T15:06:55;0.10;99.90
34873;DHT22;21084;51.098;14.506;2024-01-16T15:09:23;0.00;99.90
34873;DHT22;21084;51.098;14.506;2024-01-16T15:11:52;0.00;99.90
34873;DHT22;21084;51.098;14.506;2024-01-16T15:14:20;0.00;99.90
34873;DHT22;21084;51.098;14.506;2024-01-16T15:16:49;-0.10;99.90
34873;DHT22;21084;51.098;14.506;2024-01-16T15:19:18;-0.10;99.90
34873;DHT22;21084;51.098;14.506;2024-01-16T15:21:48;-0.10;99.90
34873;DHT22;21084;51.098;14.506;2024-01-16T15:24:18;-0.20;99.90
34873;DHT22;21084;51.098;14.506;2024-01-16T15:26:53;-0.20;99.90
34873;DHT22;21084;51.098;14.506;2024-01-16T15:29:23;-0.20;99.90
34873;DHT22;21084;51.098;14.506;2024-01-16T15:31:53;-0.20;99.90
34873;DHT22;21084;51.098;14.506;2024-01-16T15:34:21;-0.30;99.90
34873;DHT22;21084;51.098;14.506;2024-01-16T15:36:51;-0.30;99.90
34873;DHT22;21084;51.098;14.506;2024-01-16T15:39:20;-0.40;99.90